createdAt,value
2023-02-06T00:00:53.651Z,-4.92
2023-02-06T00:03:20.744Z,-5.05
2023-02-06T00:05:55.586Z,-4.99
2023-02-06T00:08:22.500Z,-5.15
2023-02-06T00:10:49.436Z,-5.17
2023-02-06T00:13:16.648Z,-5.16
2023-02-06T00:15:44.270Z,-5.11
2023-02-06T00:18:11.624Z,-5.19
2023-02-06T00:20:38.789Z,-5.13
2023-02-06T00:23:05.706Z,-5.23
2023-02-06T00:25:32.921Z,-5.26
2023-02-06T00:27:59.926Z,-5.25
2023-02-06T00:30:27.181Z,-5.32
2023-02-06T00:32:54.102Z,-5.33
2023-02-06T00:35:21.107Z,-5.40
2023-02-06T00:37:48.220Z,-5.41
2023-02-06T00:40:15.155Z,-5.53
2023-02-06T00:42:42.108Z,-5.48
2023-02-06T00:45:10.421Z,-5.39
2023-02-06T00:47:37.383Z,-5.46
2023-02-06T00:50:05.975Z,-5.41
2023-02-06T00:52:33.023Z,-5.40
2023-02-06T00:54:59.979Z,-5.43
2023-02-06T00:57:26.928Z,-5.42
2023-02-06T00:59:54.433Z,-5.48
2023-02-06T01:02:21.509Z,-5.41
2023-02-06T01:04:48.695Z,-5.48
2023-02-06T01:07:15.661Z,-5.47
2023-02-06T01:09:42.518Z,-5.48
2023-02-06T01:12:09.760Z,-5.47
2023-02-06T01:14:36.641Z,-5.52
2023-02-06T01:17:03.912Z,-5.46
2023-02-06T01:19:30.929Z,-5.40
2023-02-06T01:21:57.971Z,-5.46
2023-02-06T01:24:24.928Z,-5.54
2023-02-06T01:26:51.762Z,-5.45
2023-02-06T01:29:18.604Z,-5.55
2023-02-06T01:31:45.901Z,-5.59
2023-02-06T01:34:12.964Z,-5.63
2023-02-06T01:36:39.894Z,-5.61
2023-02-06T01:39:07.426Z,-5.57
2023-02-06T01:41:34.944Z,-5.54
2023-02-06T01:44:13.978Z,-5.51
2023-02-06T01:46:43.489Z,-5.50
2023-02-06T01:49:17.191Z,-5.51
2023-02-06T01:51:44.756Z,-5.61
2023-02-06T01:54:13.983Z,-5.53
2023-02-06T01:56:45.557Z,-5.52
2023-02-06T01:59:12.816Z,-5.52
2023-02-06T02:01:41.145Z,-5.51
2023-02-06T02:04:13.441Z,-5.57
2023-02-06T02:06:41.223Z,-5.59
2023-02-06T02:09:08.310Z,-5.49
2023-02-06T02:11:38.873Z,-5.52
2023-02-06T02:14:10.112Z,-5.53
2023-02-06T02:16:49.347Z,-5.50
2023-02-06T02:19:19.160Z,-5.53
2023-02-06T02:22:00.233Z,-5.56
2023-02-06T02:24:48.971Z,-5.50
2023-02-06T02:27:34.307Z,-5.48
2023-02-06T02:30:07.736Z,-5.50
2023-02-06T02:32:56.625Z,-5.45
2023-02-06T02:35:53.749Z,-5.51
2023-02-06T02:38:37.415Z,-5.60
2023-02-06T02:41:07.799Z,-5.76
2023-02-06T02:43:51.199Z,-5.64
2023-02-06T02:46:31.645Z,-5.59
2023-02-06T02:49:04.928Z,-5.65
2023-02-06T02:51:34.271Z,-5.69
2023-02-06T02:54:01.235Z,-5.74
2023-02-06T02:56:29.851Z,-5.73
2023-02-06T02:59:05.232Z,-5.85
2023-02-06T03:01:56.173Z,-5.89
2023-02-06T03:04:30.201Z,-6.05
2023-02-06T03:07:06.658Z,-6.04
2023-02-06T03:09:45.969Z,-6.05
2023-02-06T03:12:24.352Z,-6.06
2023-02-06T03:15:05.522Z,-6.13
2023-02-06T03:17:44.706Z,-6.24
2023-02-06T03:20:13.837Z,-6.26
2023-02-06T03:22:47.106Z,-6.30
2023-02-06T03:25:19.106Z,-6.34
2023-02-06T03:27:47.706Z,-6.36
2023-02-06T03:30:16.349Z,-6.35
2023-02-06T03:32:47.278Z,-6.30
2023-02-06T03:35:21.995Z,-6.29
2023-02-06T03:37:49.624Z,-6.28
2023-02-06T03:40:18.523Z,-6.37
2023-02-06T03:42:56.287Z,-6.35
2023-02-06T03:45:29.115Z,-6.27
2023-02-06T03:48:03.795Z,-6.24
2023-02-06T03:50:32.365Z,-6.21
2023-02-06T03:53:02.231Z,-6.12
2023-02-06T03:55:29.218Z,-6.23
2023-02-06T03:58:01.545Z,-6.07
2023-02-06T04:00:31.229Z,-6.12
2023-02-06T04:02:59.350Z,-6.11
2023-02-06T04:05:27.323Z,-6.17
2023-02-06T04:07:56.535Z,-6.12
2023-02-06T04:10:26.115Z,-6.13
2023-02-06T04:12:53.700Z,-6.16
2023-02-06T04:15:20.854Z,-6.06
2023-02-06T04:17:59.431Z,-6.16
2023-02-06T04:20:27.220Z,-6.10
2023-02-06T04:22:54.293Z,-6.24
2023-02-06T04:25:21.242Z,-6.05
2023-02-06T04:27:48.271Z,-6.12
2023-02-06T04:30:15.762Z,-6.14
2023-02-06T04:32:43.947Z,-6.17
2023-02-06T04:35:11.631Z,-6.22
2023-02-06T04:37:38.596Z,-6.27
2023-02-06T04:40:06.655Z,-6.59
2023-02-06T04:42:35.483Z,-6.60
2023-02-06T04:45:02.317Z,-6.54
2023-02-06T04:47:29.923Z,-6.49
2023-02-06T04:49:56.819Z,-6.44
2023-02-06T04:52:23.781Z,-6.42
2023-02-06T04:54:50.688Z,-6.43
2023-02-06T04:57:17.689Z,-6.44
2023-02-06T04:59:45.152Z,-6.46
2023-02-06T05:02:12.142Z,-6.44
2023-02-06T05:04:39.282Z,-6.50
2023-02-06T05:07:06.559Z,-6.43
2023-02-06T05:09:33.690Z,-6.46
2023-02-06T05:12:00.659Z,-6.41
2023-02-06T05:14:27.628Z,-6.45
2023-02-06T05:16:54.538Z,-6.39
2023-02-06T05:19:21.943Z,-6.36
2023-02-06T05:21:48.855Z,-6.25
2023-02-06T05:24:15.722Z,-6.20
2023-02-06T05:26:42.581Z,-6.31
2023-02-06T05:29:10.009Z,-6.26
2023-02-06T05:31:37.188Z,-6.15
2023-02-06T05:34:04.283Z,-6.14
2023-02-06T05:36:31.218Z,-6.09
2023-02-06T05:38:58.176Z,-6.00
2023-02-06T05:41:25.645Z,-5.93
2023-02-06T05:43:52.471Z,-6.00
2023-02-06T05:46:19.557Z,-5.96
2023-02-06T05:48:46.598Z,-5.98
2023-02-06T05:51:13.770Z,-6.05
2023-02-06T05:53:40.816Z,-6.00
2023-02-06T05:56:07.748Z,-6.05
2023-02-06T05:58:34.722Z,-5.98
2023-02-06T06:01:01.868Z,-5.98
2023-02-06T06:03:28.839Z,-6.01
2023-02-06T06:05:55.831Z,-6.03
2023-02-06T06:08:22.870Z,-5.99
2023-02-06T06:10:51.405Z,-6.05
2023-02-06T06:13:18.932Z,-6.01
2023-02-06T06:15:45.951Z,-6.06
2023-02-06T06:18:13.097Z,-6.27
2023-02-06T06:20:41.481Z,-6.17
2023-02-06T06:23:08.777Z,-6.21
2023-02-06T06:25:36.560Z,-6.39
2023-02-06T06:28:04.357Z,-6.27
2023-02-06T06:30:32.021Z,-6.17
2023-02-06T06:32:59.423Z,-6.06
2023-02-06T06:35:26.808Z,-6.02
2023-02-06T06:38:03.184Z,-5.93
2023-02-06T06:40:30.196Z,-5.95
2023-02-06T06:42:57.118Z,-6.04
2023-02-06T06:45:24.077Z,-5.92
2023-02-06T06:47:51.003Z,-5.91
2023-02-06T06:50:18.182Z,-5.86
2023-02-06T06:52:45.108Z,-5.71
2023-02-06T06:55:12.048Z,-5.67
2023-02-06T06:57:38.969Z,-5.53
2023-02-06T07:00:09.332Z,-5.50
2023-02-06T07:02:37.053Z,-5.57
2023-02-06T07:05:04.584Z,-5.43
2023-02-06T07:07:31.869Z,-5.35
2023-02-06T07:10:02.116Z,-5.27
2023-02-06T07:12:29.216Z,-5.22
2023-02-06T07:14:56.418Z,-4.99
2023-02-06T07:17:23.446Z,-4.87
2023-02-06T07:19:52.514Z,-4.77
2023-02-06T07:22:20.308Z,-4.59
2023-02-06T07:24:47.672Z,-4.53
2023-02-06T07:27:14.861Z,-4.41
2023-02-06T07:29:41.756Z,-4.31
2023-02-06T07:32:08.756Z,-4.09
2023-02-06T07:34:36.257Z,-3.94
2023-02-06T07:37:04.815Z,-3.77
2023-02-06T07:39:32.166Z,-3.64
2023-02-06T07:41:59.216Z,-3.34
2023-02-06T07:44:26.377Z,-3.10
2023-02-06T07:46:53.257Z,-2.96
2023-02-06T07:49:20.350Z,-2.76
2023-02-06T07:51:47.914Z,-2.78
2023-02-06T07:54:15.338Z,-2.68
2023-02-06T07:56:42.965Z,-2.40
2023-02-06T07:59:10.574Z,-2.14
2023-02-06T08:01:37.581Z,-2.11
2023-02-06T08:04:04.629Z,-1.88
2023-02-06T08:06:31.595Z,-1.16
2023-02-06T08:08:58.478Z,-0.84
2023-02-06T08:11:27.820Z,-0.63
2023-02-06T08:13:54.674Z,-0.43
2023-02-06T08:16:23.131Z,-0.27
2023-02-06T08:18:50.517Z,-0.02
2023-02-06T08:21:21.175Z,-0.15
2023-02-06T08:23:53.848Z,0.17
2023-02-06T08:26:22.000Z,0.44
2023-02-06T08:28:50.818Z,0.57
2023-02-06T08:31:23.820Z,0.38
2023-02-06T08:33:51.685Z,0.29
2023-02-06T08:36:21.954Z,1.00
2023-02-06T08:38:52.539Z,1.37
2023-02-06T08:41:24.637Z,1.69
2023-02-06T08:43:56.361Z,1.33
2023-02-06T08:46:25.351Z,1.39
2023-02-06T08:49:01.311Z,1.35
2023-02-06T08:51:28.529Z,1.77
2023-02-06T08:53:57.254Z,1.62
2023-02-06T08:56:24.717Z,2.15
2023-02-06T08:58:51.943Z,1.74
2023-02-06T09:01:19.176Z,2.04
2023-02-06T09:03:46.985Z,2.34
2023-02-06T09:06:15.108Z,2.64
2023-02-06T09:08:42.580Z,3.07
2023-02-06T09:11:17.841Z,3.46
2023-02-06T09:13:49.269Z,4.19
2023-02-06T09:16:18.540Z,4.08
2023-02-06T17:33:21.195Z,-1.13
2023-02-06T17:35:49.186Z,-1.25
2023-02-06T17:38:16.698Z,-1.31
2023-02-06T17:40:45.001Z,-1.34
2023-02-06T17:43:12.036Z,-1.37
2023-02-06T17:45:41.201Z,-1.34
2023-02-06T17:48:08.939Z,-1.42
2023-02-06T17:50:38.280Z,-1.47
2023-02-06T17:53:07.472Z,-1.51
2023-02-06T17:55:35.509Z,-1.55
2023-02-06T17:58:04.368Z,-1.61
2023-02-06T18:00:33.256Z,-1.63
2023-02-06T18:03:00.873Z,-1.75
2023-02-06T18:05:28.174Z,-1.77
2023-02-06T18:07:56.281Z,-1.83
2023-02-06T18:10:26.400Z,-1.83
2023-02-06T18:12:53.949Z,-1.95
2023-02-06T18:15:21.812Z,-2.00
2023-02-06T18:17:54.973Z,-2.03
2023-02-06T18:20:23.327Z,-2.03
2023-02-06T18:22:51.297Z,-2.14
2023-02-06T18:25:19.095Z,-2.18
2023-02-06T18:27:46.888Z,-2.31
2023-02-06T18:30:17.378Z,-2.28
2023-02-06T18:32:45.707Z,-2.33
2023-02-06T18:35:15.441Z,-2.39
2023-02-06T18:37:44.393Z,-2.36
2023-02-06T18:40:12.849Z,-2.47
2023-02-06T18:45:50.657Z,-2.54
2023-02-06T18:48:19.369Z,-2.60
2023-02-06T18:50:47.082Z,-2.66
2023-02-06T18:53:16.428Z,-2.73
2023-02-06T18:55:44.933Z,-2.79
2023-02-06T18:58:13.075Z,-2.81
2023-02-06T19:00:45.579Z,-2.79
2023-02-06T19:03:14.041Z,-2.78
2023-02-06T19:05:42.463Z,-2.72
2023-02-06T19:08:11.273Z,-2.73
2023-02-06T19:10:40.843Z,-2.72
2023-02-06T19:13:09.024Z,-2.71
2023-02-06T19:15:39.203Z,-2.72
2023-02-06T19:18:08.318Z,-2.72
2023-02-06T19:20:37.145Z,-2.81
2023-02-06T19:23:06.692Z,-2.80
2023-02-06T19:25:36.702Z,-2.75
2023-02-06T19:28:05.036Z,-2.82
2023-02-06T19:30:34.601Z,-2.85
2023-02-06T19:33:02.217Z,-2.94
2023-02-06T19:35:30.663Z,-3.39
2023-02-06T19:38:02.424Z,-3.10
2023-02-06T19:40:30.808Z,-3.10
2023-02-06T19:43:00.127Z,-3.09
2023-02-06T19:45:28.939Z,-3.31
2023-02-06T19:47:57.832Z,-3.39
2023-02-06T19:50:25.552Z,-3.39
2023-02-06T19:52:54.690Z,-3.49
2023-02-06T19:55:23.140Z,-3.52
2023-02-06T19:57:51.685Z,-3.46
2023-02-06T20:00:20.646Z,-3.58
2023-02-06T20:02:49.282Z,-3.62
2023-02-06T20:05:20.696Z,-3.60
2023-02-06T20:07:48.794Z,-3.69
2023-02-06T20:10:19.069Z,-3.70
2023-02-06T20:12:49.518Z,-3.70
2023-02-06T20:15:18.978Z,-3.73
2023-02-06T20:17:53.032Z,-3.79
2023-02-06T20:20:21.609Z,-3.80
2023-02-06T20:22:53.276Z,-3.84
2023-02-06T20:25:21.984Z,-3.80
2023-02-06T20:27:50.694Z,-3.83
2023-02-06T20:30:28.526Z,-3.83
2023-02-06T20:32:59.084Z,-3.91
2023-02-06T20:35:27.080Z,-3.95
2023-02-06T20:37:55.579Z,-3.94
2023-02-06T20:40:23.678Z,-3.99
2023-02-06T20:42:51.958Z,-3.95
2023-02-06T20:45:19.907Z,-4.04
2023-02-06T20:47:47.651Z,-4.07
2023-02-06T20:50:17.174Z,-4.11
2023-02-06T20:52:47.978Z,-4.21
2023-02-06T20:55:15.555Z,-4.13
2023-02-06T20:57:43.385Z,-4.20
2023-02-06T21:00:13.751Z,-4.39
2023-02-06T21:02:41.092Z,-4.18
2023-02-06T21:05:08.768Z,-4.42
2023-02-06T21:07:38.219Z,-4.25
2023-02-06T21:10:05.985Z,-4.21
2023-02-06T21:12:33.544Z,-4.28
2023-02-06T21:15:03.518Z,-4.26
2023-02-06T21:17:30.523Z,-4.33
2023-02-06T21:19:59.959Z,-4.32
2023-02-06T21:22:27.253Z,-4.44
2023-02-06T21:24:54.689Z,-4.37
2023-02-06T21:27:21.669Z,-4.39
2023-02-06T21:29:48.620Z,-4.46
2023-02-06T21:32:15.763Z,-4.48
2023-02-06T21:34:42.944Z,-4.43
2023-02-06T21:37:09.963Z,-4.52
2023-02-06T21:39:38.846Z,-4.51
2023-02-06T21:42:06.698Z,-4.66
2023-02-06T21:44:34.222Z,-4.75
2023-02-06T21:47:01.091Z,-4.70
2023-02-06T21:49:28.095Z,-4.76
2023-02-06T21:51:58.566Z,-4.76
2023-02-06T21:54:25.897Z,-4.97
2023-02-06T21:56:52.941Z,-4.98
2023-02-06T21:59:19.813Z,-5.01
2023-02-06T22:01:46.742Z,-4.99
2023-02-06T22:04:13.646Z,-5.08
2023-02-06T22:06:40.971Z,-5.13
2023-02-06T22:09:15.164Z,-5.08
2023-02-06T22:11:42.608Z,-5.06
2023-02-06T22:14:13.431Z,-5.15
2023-02-06T22:16:40.905Z,-5.06
2023-02-06T22:19:08.158Z,-5.15
2023-02-06T22:21:35.982Z,-5.10
2023-02-06T22:24:06.282Z,-5.07
2023-02-06T22:26:36.903Z,-5.10
2023-02-06T22:29:05.823Z,-5.17
2023-02-06T22:31:35.172Z,-5.20
2023-02-06T22:34:02.989Z,-5.27
2023-02-06T22:36:32.130Z,-5.36
2023-02-06T22:39:10.065Z,-5.40
2023-02-06T22:41:39.502Z,-5.46
2023-02-06T22:44:06.630Z,-5.47
2023-02-06T22:46:36.493Z,-5.52
2023-02-06T22:49:06.144Z,-5.62
2023-02-06T22:51:33.477Z,-5.54
2023-02-06T22:54:00.771Z,-5.65
2023-02-06T22:56:36.151Z,-5.89
2023-02-06T22:59:12.698Z,-5.85
2023-02-06T23:01:45.588Z,-5.81
2023-02-06T23:04:23.295Z,-5.77
2023-02-06T23:06:51.197Z,-5.71
2023-02-06T23:09:27.177Z,-5.75
2023-02-06T23:11:54.991Z,-5.82
2023-02-06T23:14:21.930Z,-5.76
2023-02-06T23:16:49.129Z,-5.78
2023-02-06T23:19:17.040Z,-5.89
2023-02-06T23:21:46.354Z,-5.84
2023-02-06T23:24:14.292Z,-5.79
2023-02-06T23:26:43.725Z,-5.77
2023-02-06T23:29:15.894Z,-5.76
2023-02-06T23:31:44.578Z,-5.84
2023-02-06T23:34:12.589Z,-5.95
2023-02-06T23:36:39.760Z,-6.00
2023-02-06T23:39:06.778Z,-6.05
2023-02-06T23:41:34.497Z,-6.24
2023-02-06T23:44:04.724Z,-6.36
2023-02-06T23:46:33.687Z,-6.11
2023-02-06T23:49:00.674Z,-6.17
2023-02-06T23:51:27.775Z,-6.21
2023-02-06T23:53:54.809Z,-6.41
2023-02-06T23:56:25.307Z,-6.40
2023-02-06T23:58:53.827Z,-6.37
